createdAt,value
2023-04-16T00:00:36.300Z,102642.60
2023-04-16T00:03:23.514Z,102641.20
2023-04-16T00:05:50.712Z,102642.60
2023-04-16T00:08:18.577Z,102641.80
2023-04-16T00:10:45.227Z,102638.00
2023-04-16T00:13:12.953Z,102635.40
2023-04-16T00:15:39.398Z,102633.20
2023-04-16T00:18:05.873Z,102634.20
2023-04-16T00:20:32.995Z,102640.60
2023-04-16T00:23:00.054Z,102637.00
2023-04-16T00:25:26.877Z,102637.00
2023-04-16T00:27:53.391Z,102633.60
2023-04-16T00:30:20.032Z,102637.40
2023-04-16T00:32:46.702Z,102638.00
2023-04-16T00:35:13.183Z,102640.60
2023-04-16T00:37:39.904Z,102638.40
2023-04-16T00:40:07.797Z,102638.40
2023-04-16T00:42:37.910Z,102641.00
2023-04-16T00:45:05.845Z,102642.80
2023-04-16T00:47:37.771Z,102641.40
2023-04-16T00:50:09.326Z,102645.40
2023-04-16T00:52:36.611Z,102647.60
2023-04-16T00:55:07.108Z,102649.40
2023-04-16T00:57:34.579Z,102651.00
2023-04-16T01:00:05.665Z,102648.20
2023-04-16T01:02:34.178Z,102645.20
2023-04-16T01:05:02.808Z,102643.00
2023-04-16T01:07:30.875Z,102644.00
2023-04-16T01:09:57.394Z,102639.20
2023-04-16T01:12:27.478Z,102643.20
2023-04-16T01:14:55.915Z,102643.40
2023-04-16T01:17:24.858Z,102647.20
2023-04-16T01:19:52.197Z,102645.20
2023-04-16T01:22:20.326Z,102644.00
2023-04-16T01:24:49.543Z,102643.00
2023-04-16T01:27:16.370Z,102645.00
2023-04-16T01:29:44.324Z,102651.00
2023-04-16T01:32:12.018Z,102648.00
2023-04-16T01:34:38.701Z,102649.00
2023-04-16T01:37:05.736Z,102651.60
2023-04-16T01:39:33.244Z,102651.60
2023-04-16T01:42:00.729Z,102644.40
2023-04-16T01:44:27.516Z,102647.00
2023-04-16T01:46:54.642Z,102649.00
2023-04-16T01:49:23.297Z,102649.20
2023-04-16T01:51:53.363Z,102651.20
2023-04-16T01:54:19.953Z,102651.20
2023-04-16T01:56:47.522Z,102650.80
2023-04-16T01:59:14.191Z,102651.00
2023-04-16T02:01:41.832Z,102645.80
2023-04-16T02:04:10.422Z,102647.40
2023-04-16T02:06:39.353Z,102649.00
2023-04-16T02:09:06.096Z,102651.00
2023-04-16T02:11:34.233Z,102650.60
2023-04-16T02:14:00.724Z,102648.20
2023-04-16T02:16:27.357Z,102646.80
2023-04-16T02:18:56.264Z,102648.40
2023-04-16T02:21:25.351Z,102648.20
2023-04-16T02:23:53.040Z,102642.40
2023-04-16T02:26:20.041Z,102646.40
2023-04-16T02:28:46.892Z,102643.00
2023-04-16T02:31:18.062Z,102642.40
2023-04-16T02:33:44.931Z,102642.00
2023-04-16T02:36:12.403Z,102643.00
2023-04-16T02:38:42.166Z,102643.80
2023-04-16T02:41:09.499Z,102638.80
2023-04-16T02:43:36.023Z,102643.80
2023-04-16T02:46:04.144Z,102641.00
2023-04-16T02:48:31.252Z,102636.00
2023-04-16T02:50:57.760Z,102642.80
2023-04-16T02:53:24.498Z,102637.80
2023-04-16T02:55:54.022Z,102635.80
2023-04-16T02:58:24.751Z,102632.80
2023-04-16T03:00:53.190Z,102633.40
2023-04-16T03:03:20.542Z,102634.20
2023-04-16T03:05:48.632Z,102641.60
2023-04-16T03:08:15.790Z,102636.40
2023-04-16T03:10:42.560Z,102636.80
2023-04-16T03:13:09.011Z,102634.80
2023-04-16T03:15:35.608Z,102642.20
2023-04-16T03:18:05.685Z,102643.80
2023-04-16T03:20:32.741Z,102641.00
2023-04-16T03:22:59.421Z,102640.80
2023-04-16T03:25:28.337Z,102642.00
2023-04-16T03:27:55.328Z,102634.00
2023-04-16T03:30:24.089Z,102638.40
2023-04-16T03:32:51.718Z,102632.60
2023-04-16T03:35:21.067Z,102640.00
2023-04-16T03:37:47.638Z,102636.80
2023-04-16T03:40:15.959Z,102640.20
2023-04-16T03:42:42.773Z,102640.60
2023-04-16T03:45:10.353Z,102642.20
2023-04-16T03:47:38.163Z,102642.00
2023-04-16T03:50:05.572Z,102645.00
2023-04-16T03:52:32.007Z,102645.40
2023-04-16T03:54:58.545Z,102647.20
2023-04-16T03:57:26.753Z,102650.20
2023-04-16T03:59:53.111Z,102646.60
2023-04-16T04:02:19.691Z,102648.20
2023-04-16T04:04:47.047Z,102651.80
2023-04-16T04:07:17.763Z,102649.60
2023-04-16T04:09:45.258Z,102651.40
2023-04-16T04:12:11.611Z,102643.40
2023-04-16T04:14:39.374Z,102648.00
2023-04-16T04:17:08.514Z,102649.00
2023-04-16T04:19:47.104Z,102649.40
2023-04-16T04:22:17.924Z,102652.20
2023-04-16T04:24:44.974Z,102650.80
2023-04-16T04:27:11.347Z,102657.20
2023-04-16T04:29:37.762Z,102652.00
2023-04-16T04:32:05.771Z,102653.80
2023-04-16T04:34:32.587Z,102653.60
2023-04-16T04:37:01.083Z,102653.80
2023-04-16T04:39:28.750Z,102652.60
2023-04-16T04:41:59.204Z,102656.60
2023-04-16T04:44:28.493Z,102654.80
2023-04-16T04:46:56.131Z,102653.80
2023-04-16T04:49:22.918Z,102657.40
2023-04-16T04:51:49.841Z,102658.20
2023-04-16T04:54:17.789Z,102665.00
2023-04-16T04:56:46.155Z,102657.60
2023-04-16T04:59:12.908Z,102664.80
2023-04-16T05:01:40.534Z,102665.40
2023-04-16T05:04:07.488Z,102669.20
2023-04-16T05:06:35.601Z,102676.60
2023-04-16T05:09:03.588Z,102676.20
2023-04-16T05:11:33.183Z,102677.80
2023-04-16T05:14:02.158Z,102677.40
2023-04-16T05:16:28.833Z,102680.60
2023-04-16T05:18:55.625Z,102687.40
2023-04-16T05:21:25.812Z,102686.40
2023-04-16T05:23:53.807Z,102692.20
2023-04-16T05:26:21.108Z,102689.80
2023-04-16T05:28:47.693Z,102693.40
2023-04-16T05:31:16.394Z,102699.60
2023-04-16T05:33:43.331Z,102697.60
2023-04-16T05:36:10.821Z,102705.60
2023-04-16T05:38:38.879Z,102705.00
2023-04-16T05:41:05.509Z,102704.60
2023-04-16T05:43:32.331Z,102701.80
2023-04-16T05:46:01.810Z,102696.80
2023-04-16T05:48:29.080Z,102696.00
2023-04-16T05:50:56.509Z,102702.80
2023-04-16T05:53:23.552Z,102700.20
2023-04-16T05:55:53.311Z,102702.80
2023-04-16T05:58:20.492Z,102703.20
2023-04-16T06:00:50.442Z,102703.20
2023-04-16T06:03:17.029Z,102706.00
2023-04-16T06:05:46.569Z,102710.40
2023-04-16T06:08:13.007Z,102708.00
2023-04-16T06:10:39.664Z,102709.20
2023-04-16T06:13:06.687Z,102713.20
2023-04-16T06:15:33.188Z,102717.00
2023-04-16T06:18:02.916Z,102718.40
2023-04-16T06:20:30.361Z,102719.40
2023-04-16T06:22:57.312Z,102720.20
2023-04-16T06:25:24.113Z,102716.60
2023-04-16T06:27:50.720Z,102718.80
2023-04-16T06:30:17.680Z,102718.00
2023-04-16T06:32:45.935Z,102721.40
2023-04-16T06:35:15.596Z,102721.00
2023-04-16T06:37:42.552Z,102721.60
2023-04-16T06:40:09.837Z,102719.80
2023-04-16T06:42:39.065Z,102725.60
2023-04-16T06:45:07.267Z,102723.80
2023-04-16T06:47:33.958Z,102723.60
2023-04-16T06:50:02.323Z,102726.40
2023-04-16T06:52:29.198Z,102726.80
2023-04-16T06:54:58.021Z,102726.60
2023-04-16T06:57:25.702Z,102729.00
2023-04-16T06:59:52.382Z,102729.80
2023-04-16T07:02:19.707Z,102731.80
2023-04-16T07:04:46.479Z,102730.60
2023-04-16T07:07:15.678Z,102730.60
2023-04-16T07:09:42.572Z,102731.80
2023-04-16T07:12:13.940Z,102733.00
2023-04-16T07:14:44.619Z,102732.80
2023-04-16T07:17:12.222Z,102732.60
2023-04-16T07:19:44.818Z,102731.00
2023-04-16T07:22:14.130Z,102729.00
2023-04-16T07:24:43.488Z,102728.40
2023-04-16T07:27:16.024Z,102734.60
2023-04-16T07:29:45.333Z,102738.20
2023-04-16T07:32:15.138Z,102735.20
2023-04-16T07:34:45.979Z,102736.20
2023-04-16T07:37:15.701Z,102737.00
2023-04-16T07:39:42.267Z,102737.40
2023-04-16T07:42:12.366Z,102740.40
2023-04-16T07:44:41.171Z,102742.60
2023-04-16T07:47:10.631Z,102742.40
2023-04-16T07:49:39.993Z,102741.80
2023-04-16T07:52:08.857Z,102742.40
2023-04-16T07:54:37.949Z,102743.00
2023-04-16T07:57:05.897Z,102746.00
2023-04-16T07:59:32.458Z,102741.00
2023-04-16T08:01:59.386Z,102744.80
2023-04-16T08:04:28.218Z,102743.40
2023-04-16T08:06:55.698Z,102748.00
2023-04-16T08:09:28.855Z,102748.60
2023-04-16T08:11:58.797Z,102748.40
2023-04-16T08:14:28.069Z,102747.40
2023-04-16T08:16:55.137Z,102748.60
2023-04-16T08:19:31.732Z,102746.60
2023-04-16T08:21:59.143Z,102750.80
2023-04-16T08:24:27.706Z,102749.00
2023-04-16T08:26:58.456Z,102751.40
2023-04-16T08:29:29.499Z,102755.40
2023-04-16T08:32:00.547Z,102755.20
2023-04-16T08:34:34.930Z,102753.60
2023-04-16T08:37:02.906Z,102762.60
2023-04-16T08:39:31.207Z,102761.00
2023-04-16T08:41:59.038Z,102764.20
2023-04-16T08:44:35.004Z,102763.20
2023-04-16T08:47:02.953Z,102763.00
2023-04-16T08:49:38.165Z,102764.00
2023-04-16T08:52:06.113Z,102757.00
2023-04-16T08:54:56.785Z,102754.20
2023-04-16T08:57:43.353Z,102755.60
2023-04-16T09:00:13.641Z,102754.40
2023-04-16T09:02:43.759Z,102747.60
2023-04-16T09:05:16.905Z,102746.00
2023-04-16T09:07:47.828Z,102749.00
2023-04-16T09:10:16.981Z,102752.80
2023-04-16T09:12:46.553Z,102758.20
2023-04-16T09:15:15.391Z,102759.20
2023-04-16T09:17:42.422Z,102758.60
2023-04-16T09:20:11.567Z,102757.00
2023-04-16T09:22:42.123Z,102761.80
2023-04-16T09:25:10.665Z,102760.40
2023-04-16T09:27:38.579Z,102765.00
2023-04-16T09:30:27.009Z,102762.60
2023-04-16T09:33:16.046Z,102763.80
2023-04-16T09:35:48.915Z,102759.80
2023-04-16T09:38:20.561Z,102759.80
2023-04-16T09:41:10.382Z,102761.60
2023-04-16T09:43:39.726Z,102757.80
2023-04-16T09:46:08.571Z,102760.20
2023-04-16T09:48:35.425Z,102761.80
2023-04-16T09:51:07.349Z,102763.60
2023-04-16T09:53:35.141Z,102764.60
2023-04-16T09:56:06.166Z,102767.60
2023-04-16T09:58:37.632Z,102764.60
2023-04-16T10:01:15.429Z,102770.60
2023-04-16T10:03:42.334Z,102768.20
2023-04-16T10:06:21.448Z,102767.80
2023-04-16T10:08:56.397Z,102773.00
2023-04-16T10:11:27.049Z,102774.80
2023-04-16T10:13:53.550Z,102774.20
2023-04-16T10:16:22.893Z,102773.80
2023-04-16T10:18:52.424Z,102775.00
2023-04-16T10:21:20.363Z,102778.80
2023-04-16T10:23:49.071Z,102776.60
2023-04-16T10:26:18.395Z,102782.20
2023-04-16T10:28:49.675Z,102784.20
2023-04-16T10:31:22.219Z,102783.00
2023-04-16T10:33:51.803Z,102786.00
2023-04-16T10:36:29.088Z,102789.60
2023-04-16T10:38:59.508Z,102787.80
2023-04-16T10:41:27.844Z,102791.20
2023-04-16T10:44:09.501Z,102794.00
2023-04-16T10:46:40.806Z,102796.20
2023-04-16T10:49:26.857Z,102802.00
2023-04-16T10:52:12.533Z,102800.40
2023-04-16T10:54:40.758Z,102803.00
2023-04-16T10:57:19.037Z,102810.20
2023-04-16T10:59:49.931Z,102808.60
2023-04-16T11:02:20.165Z,102811.80
2023-04-16T11:04:51.001Z,102810.60
2023-04-16T11:07:19.819Z,102807.60
2023-04-16T11:10:04.527Z,102805.60
2023-04-16T11:12:40.598Z,102809.40
2023-04-16T11:15:22.540Z,102814.40
2023-04-16T11:17:52.058Z,102809.40
2023-04-16T11:20:28.059Z,102817.60
2023-04-16T11:22:57.751Z,102816.60
2023-04-16T11:25:42.197Z,102814.60
2023-04-16T11:28:09.087Z,102818.20
2023-04-16T11:30:38.710Z,102815.80
2023-04-16T11:33:11.713Z,102814.60
2023-04-16T11:35:40.875Z,102815.60
2023-04-16T11:38:09.843Z,102817.80
2023-04-16T11:40:42.220Z,102821.20
2023-04-16T11:43:16.623Z,102818.20
2023-04-16T11:46:00.329Z,102815.00
2023-04-16T11:48:48.791Z,102816.40
2023-04-16T11:51:17.682Z,102820.20
2023-04-16T11:53:56.634Z,102818.40
2023-04-16T11:56:33.833Z,102818.60
2023-04-16T11:59:13.455Z,102821.00
2023-04-16T12:01:45.901Z,102817.40
2023-04-16T12:04:16.047Z,102820.00
2023-04-16T12:07:19.187Z,102814.40
2023-04-16T12:09:45.580Z,102820.00
2023-04-16T12:12:30.364Z,102819.20
2023-04-16T12:14:59.221Z,102822.00
2023-04-16T12:17:30.367Z,102819.00
2023-04-16T12:20:04.294Z,102824.00
2023-04-16T12:22:37.263Z,102825.80
2023-04-16T12:25:16.723Z,102828.40
2023-04-16T12:27:47.772Z,102826.60
2023-04-16T12:30:18.261Z,102828.60
2023-04-16T12:32:48.767Z,102830.40
2023-04-16T12:35:33.758Z,102827.20
2023-04-16T12:38:00.952Z,102832.60
2023-04-16T12:40:29.439Z,102833.60
2023-04-16T12:42:56.046Z,102827.80
2023-04-16T12:45:26.066Z,102831.00
2023-04-16T12:47:53.506Z,102831.20
2023-04-16T12:50:22.167Z,102833.40
2023-04-16T12:52:48.721Z,102833.40
2023-04-16T12:55:15.777Z,102837.00
2023-04-16T12:57:45.856Z,102836.20
2023-04-16T13:00:22.509Z,102836.40
2023-04-16T13:02:49.840Z,102836.40
2023-04-16T13:05:19.606Z,102839.80
2023-04-16T13:07:49.448Z,102840.80
2023-04-16T13:10:20.372Z,102843.40
2023-04-16T13:12:49.218Z,102846.20
2023-04-16T13:15:15.839Z,102842.80
2023-04-16T13:17:42.431Z,102840.00
2023-04-16T13:20:12.929Z,102837.00
2023-04-16T13:22:39.798Z,102838.40
2023-04-16T13:25:08.217Z,102839.00
2023-04-16T13:27:37.049Z,102838.20
2023-04-16T13:30:04.011Z,102841.00
2023-04-16T13:32:30.770Z,102840.20
2023-04-16T13:34:59.413Z,102842.40
2023-04-16T13:37:27.792Z,102838.60
2023-04-16T13:39:56.785Z,102834.80
2023-04-16T13:42:23.848Z,102835.60
2023-04-16T13:44:56.289Z,102830.00
2023-04-16T13:47:26.332Z,102828.60
2023-04-16T13:49:55.360Z,102830.00
2023-04-16T13:52:22.438Z,102827.20
2023-04-16T13:54:56.648Z,102823.80
2023-04-16T13:57:25.402Z,102820.20
2023-04-16T13:59:53.137Z,102827.40
2023-04-16T14:02:20.356Z,102821.60
2023-04-16T14:04:51.233Z,102821.20
2023-04-16T14:07:21.959Z,102822.60
2023-04-16T14:09:48.616Z,102823.00
2023-04-16T14:12:15.992Z,102820.20
2023-04-16T14:14:43.047Z,102820.20
2023-04-16T14:19:53.015Z,102819.60
2023-04-16T14:22:21.425Z,102816.00
2023-04-16T14:24:48.270Z,102817.80
2023-04-16T14:27:16.854Z,102817.80
2023-04-16T14:29:46.934Z,102815.40
2023-04-16T14:32:16.070Z,102813.20
2023-04-16T14:34:45.622Z,102817.60
2023-04-16T14:37:12.052Z,102818.40
2023-04-16T14:39:42.122Z,102817.60
2023-04-16T14:42:11.440Z,102815.40
2023-04-16T14:44:38.300Z,102817.60
2023-04-16T14:47:06.060Z,102821.60
2023-04-16T14:49:34.288Z,102824.40
2023-04-16T14:52:06.155Z,102822.60
2023-04-16T14:54:37.347Z,102822.80
2023-04-16T14:57:05.740Z,102824.60
2023-04-16T14:59:36.243Z,102823.40
2023-04-16T15:02:03.952Z,102824.00
2023-04-16T15:04:30.624Z,102823.80
2023-04-16T15:06:58.923Z,102822.80
2023-04-16T15:09:26.951Z,102824.40
2023-04-16T15:11:54.440Z,102822.00
2023-04-16T15:14:22.923Z,102821.20
2023-04-16T15:16:53.776Z,102817.60
2023-04-16T15:19:20.805Z,102818.20
2023-04-16T15:21:48.857Z,102818.20
2023-04-16T15:24:15.996Z,102822.80
2023-04-16T15:26:44.817Z,102822.80
2023-04-16T15:29:11.883Z,102824.60
2023-04-16T15:31:42.309Z,102826.60
2023-04-16T15:34:08.936Z,102831.00
2023-04-16T15:36:37.386Z,102831.00
2023-04-16T15:39:12.546Z,102833.20
2023-04-16T15:41:57.577Z,102832.80
2023-04-16T15:44:30.427Z,102834.80
2023-04-16T15:46:59.734Z,102835.40
2023-04-16T15:49:30.067Z,102834.80
2023-04-16T15:51:57.452Z,102829.40
2023-04-16T15:54:24.242Z,102831.80
2023-04-16T15:56:53.839Z,102834.40
2023-04-16T15:59:20.947Z,102834.60
2023-04-16T16:01:51.756Z,102834.20
2023-04-16T16:04:21.647Z,102835.80
2023-04-16T16:06:56.203Z,102838.60
2023-04-16T16:09:26.343Z,102840.20
2023-04-16T16:11:54.453Z,102840.00
2023-04-16T16:14:23.896Z,102839.60
2023-04-16T16:16:51.539Z,102841.20
2023-04-16T16:19:18.621Z,102845.60
2023-04-16T16:21:48.166Z,102844.80
2023-04-16T16:24:15.646Z,102846.60
2023-04-16T16:26:42.217Z,102847.80
2023-04-16T16:29:10.196Z,102846.00
2023-04-16T16:31:36.929Z,102846.00
2023-04-16T16:34:05.878Z,102847.80
2023-04-16T16:36:36.179Z,102849.20
2023-04-16T16:39:03.660Z,102849.60
2023-04-16T16:41:35.217Z,102846.20
2023-04-16T16:44:01.776Z,102849.60
2023-04-16T16:46:30.092Z,102845.00
2023-04-16T16:48:58.057Z,102849.80
2023-04-16T16:51:27.666Z,102854.20
2023-04-16T16:53:58.437Z,102853.60
2023-04-16T16:56:25.231Z,102853.20
2023-04-16T16:58:51.638Z,102851.20
2023-04-16T17:01:20.178Z,102854.60
2023-04-16T17:03:46.680Z,102851.00
2023-04-16T17:06:14.112Z,102850.40
2023-04-16T17:08:41.190Z,102853.20
2023-04-16T17:11:07.616Z,102849.20
2023-04-16T17:13:37.356Z,102852.20
2023-04-16T17:16:04.119Z,102851.00
2023-04-16T17:18:30.672Z,102851.20
2023-04-16T17:20:57.755Z,102855.40
2023-04-16T17:23:25.936Z,102856.00
2023-04-16T17:25:56.292Z,102863.60
2023-04-16T17:28:22.687Z,102865.40
2023-04-16T17:30:55.751Z,102868.40
2023-04-16T17:33:22.350Z,102866.80
2023-04-16T17:35:49.130Z,102868.80
2023-04-16T17:38:16.145Z,102873.40
2023-04-16T17:40:43.908Z,102876.60
2023-04-16T17:43:10.883Z,102878.00
2023-04-16T17:45:37.369Z,102876.40
2023-04-16T17:48:04.946Z,102880.00
2023-04-16T17:50:31.365Z,102877.40
2023-04-16T17:53:02.850Z,102878.00
2023-04-16T17:55:30.577Z,102880.40
2023-04-16T17:57:57.700Z,102888.20
2023-04-16T18:00:25.409Z,102885.20
2023-04-16T18:02:51.984Z,102882.40
2023-04-16T18:05:19.357Z,102892.00
2023-04-16T18:07:46.694Z,102891.00
2023-04-16T18:10:13.651Z,102888.80
2023-04-16T18:12:40.441Z,102888.80
2023-04-16T18:15:08.246Z,102892.80
2023-04-16T18:17:34.789Z,102895.20
2023-04-16T18:20:06.374Z,102903.80
2023-04-16T18:22:33.843Z,102902.40
2023-04-16T18:25:01.548Z,102903.60
2023-04-16T18:27:29.969Z,102906.20
2023-04-16T18:29:56.696Z,102909.80
2023-04-16T18:32:23.703Z,102908.40
2023-04-16T18:34:51.018Z,102910.60
2023-04-16T18:37:23.627Z,102916.20
2023-04-16T18:39:52.964Z,102913.60
2023-04-16T18:42:21.598Z,102920.80
2023-04-16T18:44:52.577Z,102917.80
2023-04-16T18:47:20.199Z,102921.40
2023-04-16T18:49:46.819Z,102925.60
2023-04-16T18:52:15.150Z,102917.60
2023-04-16T18:54:42.908Z,102922.00
2023-04-16T18:57:09.532Z,102920.00
2023-04-16T18:59:39.563Z,102920.40
2023-04-16T19:02:06.956Z,102929.40
2023-04-16T19:04:34.957Z,102931.80
2023-04-16T19:07:03.076Z,102934.00
2023-04-16T19:09:31.018Z,102936.60
2023-04-16T19:11:57.858Z,102940.00
2023-04-16T19:14:25.461Z,102943.00
2023-04-16T19:16:53.382Z,102947.20
2023-04-16T19:19:20.138Z,102951.40
2023-04-16T19:21:47.069Z,102955.00
2023-04-16T19:24:13.905Z,102958.60
2023-04-16T19:26:44.330Z,102961.00
2023-04-16T19:29:11.505Z,102966.60
2023-04-16T19:31:38.259Z,102964.20
2023-04-16T19:34:05.281Z,102962.00
2023-04-16T19:36:31.866Z,102960.80
2023-04-16T19:39:03.505Z,102964.60
2023-04-16T19:41:30.707Z,102966.40
2023-04-16T19:43:57.576Z,102966.60
2023-04-16T19:46:26.955Z,102968.20
2023-04-16T19:48:58.370Z,102968.60
2023-04-16T19:51:28.917Z,102967.00
2023-04-16T19:54:06.027Z,102965.20
2023-04-16T19:56:33.163Z,102965.60
2023-04-16T19:59:01.763Z,102963.60
2023-04-16T20:01:31.007Z,102965.00
2023-04-16T20:04:00.627Z,102963.40
2023-04-16T20:06:27.071Z,102966.40
2023-04-16T20:08:53.676Z,102967.20
2023-04-16T20:11:21.351Z,102962.40
2023-04-16T20:13:49.180Z,102969.20
2023-04-16T20:16:23.594Z,102971.00
2023-04-16T20:18:53.635Z,102967.00
2023-04-16T20:21:24.901Z,102972.00
2023-04-16T20:23:51.593Z,102972.80
2023-04-16T20:26:18.835Z,102971.00
2023-04-16T20:28:45.808Z,102971.20
2023-04-16T20:31:12.447Z,102971.00
2023-04-16T20:33:42.812Z,102976.00
2023-04-16T20:36:12.536Z,102968.00
2023-04-16T20:38:38.934Z,102976.80
2023-04-16T20:41:10.392Z,102972.00
2023-04-16T20:43:40.727Z,102982.80
2023-04-16T20:46:08.983Z,102976.60
2023-04-16T20:48:38.023Z,102988.20
2023-04-16T20:51:07.281Z,102983.20
2023-04-16T20:53:33.728Z,102982.40
2023-04-16T20:56:02.103Z,102982.60
2023-04-16T20:58:30.449Z,102984.80
2023-04-16T21:00:59.387Z,102989.40
2023-04-16T21:03:26.653Z,102986.00
2023-04-16T21:05:55.186Z,102993.40
2023-04-16T21:08:24.577Z,102990.40
2023-04-16T21:10:55.969Z,102990.80
2023-04-16T21:13:23.213Z,102994.80
2023-04-16T21:15:50.758Z,102999.60
2023-04-16T21:18:18.337Z,102999.00
2023-04-16T21:20:47.308Z,103000.40
2023-04-16T21:23:13.667Z,103002.20
2023-04-16T21:25:40.512Z,102999.60
2023-04-16T21:28:07.240Z,103003.60
2023-04-16T21:30:35.074Z,103004.00
2023-04-16T21:33:01.917Z,103002.20
2023-04-16T21:35:32.546Z,103004.40
2023-04-16T21:38:02.385Z,103003.00
2023-04-16T21:40:28.789Z,103001.80
2023-04-16T21:42:56.888Z,103004.20
2023-04-16T21:45:24.371Z,103006.80
2023-04-16T21:47:53.488Z,103004.20
2023-04-16T21:50:21.644Z,103000.80
2023-04-16T21:52:48.648Z,103002.20
2023-04-16T21:55:15.143Z,103006.80
2023-04-16T21:57:42.401Z,103006.00
2023-04-16T22:00:14.031Z,103009.40
2023-04-16T22:02:42.076Z,103007.20
2023-04-16T22:05:11.500Z,103012.40
2023-04-16T22:07:38.033Z,103013.20
2023-04-16T22:10:06.275Z,103012.80
2023-04-16T22:12:38.935Z,103016.80
2023-04-16T22:15:08.335Z,103020.60
2023-04-16T22:17:35.344Z,103014.80
2023-04-16T22:20:08.676Z,103016.60
2023-04-16T22:22:35.419Z,103022.60
2023-04-16T22:25:03.444Z,103023.80
2023-04-16T22:27:30.710Z,103021.60
2023-04-16T22:30:03.836Z,103023.40
2023-04-16T22:32:30.873Z,103023.40
2023-04-16T22:34:57.463Z,103031.20
2023-04-16T22:37:25.177Z,103030.60
2023-04-16T22:39:57.456Z,103034.80
2023-04-16T22:42:25.728Z,103034.80
2023-04-16T22:44:53.478Z,103033.60
2023-04-16T22:47:20.842Z,103035.00
2023-04-16T22:49:52.343Z,103037.80
2023-04-16T22:52:20.867Z,103036.60
2023-04-16T22:54:50.114Z,103036.40
2023-04-16T22:57:24.816Z,103037.60
2023-04-16T22:59:55.875Z,103038.00
2023-04-16T23:02:22.760Z,103033.40
2023-04-16T23:04:49.845Z,103040.40
2023-04-16T23:07:16.910Z,103042.00
2023-04-16T23:09:43.369Z,103042.40
2023-04-16T23:12:10.097Z,103042.40
2023-04-16T23:14:37.146Z,103045.20
2023-04-16T23:17:05.938Z,103046.20
2023-04-16T23:19:32.742Z,103043.20
2023-04-16T23:22:01.667Z,103048.40
2023-04-16T23:24:28.605Z,103045.00
2023-04-16T23:27:00.116Z,103045.00
2023-04-16T23:29:27.657Z,103041.80
2023-04-16T23:31:59.700Z,103042.60
2023-04-16T23:34:29.676Z,103052.00
2023-04-16T23:36:56.486Z,103052.40
2023-04-16T23:39:38.746Z,103054.00
2023-04-16T23:42:11.887Z,103052.40
2023-04-16T23:44:38.553Z,103054.60
2023-04-16T23:47:05.818Z,103056.60
2023-04-16T23:49:33.738Z,103055.80
2023-04-16T23:52:03.926Z,103058.00
2023-04-16T23:54:31.944Z,103059.60
2023-04-16T23:56:58.536Z,103061.40
2023-04-16T23:59:25.002Z,103061.60
